createdAt,value
2022-07-29T00:01:23.008Z,65.14
2022-07-29T00:03:56.958Z,64.78
2022-07-29T00:06:25.294Z,64.60
2022-07-29T00:08:56.301Z,64.71
2022-07-29T00:11:24.509Z,64.94
2022-07-29T00:13:54.038Z,64.63
2022-07-29T00:16:22.345Z,64.52
2022-07-29T00:18:50.808Z,65.58
2022-07-29T00:21:19.014Z,65.89
2022-07-29T00:23:47.291Z,66.35
2022-07-29T00:26:15.512Z,66.58
2022-07-29T00:28:43.746Z,66.40
2022-07-29T00:31:13.384Z,67.26
2022-07-29T00:33:41.648Z,67.52
2022-07-29T00:36:08.909Z,67.84
2022-07-29T00:38:37.119Z,67.83
2022-07-29T00:41:05.347Z,67.95
2022-07-29T00:43:33.603Z,68.20
2022-07-29T00:46:01.833Z,68.47
2022-07-29T00:48:33.196Z,68.31
2022-07-29T00:51:04.051Z,69.41
2022-07-29T00:53:34.063Z,69.07
2022-07-29T00:56:02.466Z,69.75
2022-07-29T00:58:30.733Z,69.54
2022-07-29T01:01:00.522Z,70.07
2022-07-29T01:03:28.747Z,69.96
2022-07-29T01:05:58.972Z,70.41
2022-07-29T01:08:27.292Z,70.69
2022-07-29T01:10:56.317Z,70.44
2022-07-29T01:13:25.617Z,70.75
2022-07-29T01:16:00.468Z,71.19
2022-07-29T01:18:37.007Z,70.90
2022-07-29T01:21:35.472Z,71.79
2022-07-29T01:24:45.518Z,72.27
2022-07-29T01:27:32.116Z,72.45
2022-07-29T01:30:05.148Z,72.69
2022-07-29T01:32:38.761Z,72.83
2022-07-29T01:35:15.410Z,73.64
2022-07-29T01:37:49.344Z,74.17
2022-07-29T01:40:26.124Z,74.55
2022-07-29T01:42:59.507Z,74.96
2022-07-29T01:45:39.385Z,74.59
2022-07-29T01:48:15.568Z,74.07
2022-07-29T01:50:50.559Z,75.66
2022-07-29T01:53:28.870Z,75.11
2022-07-29T01:56:08.622Z,75.71
2022-07-29T01:58:39.521Z,75.13
2022-07-29T02:01:12.021Z,75.37
2022-07-29T02:03:46.484Z,75.20
2022-07-29T02:06:23.635Z,74.22
2022-07-29T02:08:53.513Z,74.50
2022-07-29T02:11:21.886Z,75.39
2022-07-29T02:13:52.754Z,75.08
2022-07-29T02:16:25.019Z,75.28
2022-07-29T02:18:57.839Z,75.59
2022-07-29T02:21:29.089Z,75.48
2022-07-29T02:24:01.927Z,75.79
2022-07-29T02:26:31.662Z,76.23
2022-07-29T02:29:01.246Z,77.14
2022-07-29T02:31:35.318Z,76.63
2022-07-29T02:34:05.861Z,77.71
2022-07-29T02:36:35.430Z,77.75
2022-07-29T02:39:05.303Z,78.00
2022-07-29T02:41:44.391Z,77.72
2022-07-29T02:44:15.415Z,78.31
2022-07-29T02:46:52.044Z,78.06
2022-07-29T02:49:36.524Z,77.49
2022-07-29T02:52:09.050Z,78.04
2022-07-29T02:54:44.155Z,78.05
2022-07-29T02:57:20.260Z,78.35
2022-07-29T02:59:52.451Z,79.90
2022-07-29T03:02:23.912Z,79.41
2022-07-29T03:04:55.182Z,78.71
2022-07-29T03:07:24.696Z,78.71
2022-07-29T03:09:53.967Z,80.05
2022-07-29T03:12:22.868Z,79.82
2022-07-29T03:14:51.635Z,79.65
2022-07-29T03:17:20.224Z,80.09
2022-07-29T03:19:50.554Z,80.70
2022-07-29T03:22:19.321Z,80.73
2022-07-29T03:24:47.894Z,81.36
2022-07-29T03:27:16.459Z,81.25
2022-07-29T03:29:50.514Z,81.89
2022-07-29T03:32:23.820Z,81.38
2022-07-29T03:34:55.156Z,81.16
2022-07-29T03:37:23.472Z,82.08
2022-07-29T03:39:55.096Z,81.69
2022-07-29T03:42:32.405Z,81.37
2022-07-29T03:45:08.536Z,81.08
2022-07-29T03:47:49.933Z,81.60
2022-07-29T03:50:23.585Z,81.15
2022-07-29T03:52:52.027Z,81.68
2022-07-29T03:55:20.393Z,81.70
2022-07-29T03:57:50.883Z,81.08
2022-07-29T04:00:20.486Z,81.46
2022-07-29T04:02:50.322Z,81.81
2022-07-29T04:05:26.548Z,82.05
2022-07-29T04:07:54.851Z,81.60
2022-07-29T04:10:30.668Z,81.62
2022-07-29T04:13:00.693Z,81.95
2022-07-29T04:15:31.222Z,82.12
2022-07-29T04:18:00.500Z,81.97
2022-07-29T04:20:30.247Z,83.23
2022-07-29T04:22:58.493Z,84.05
2022-07-29T04:25:26.769Z,83.88
2022-07-29T04:28:04.312Z,84.17
2022-07-29T04:30:34.357Z,84.00
2022-07-29T04:33:04.404Z,84.50
2022-07-29T04:35:38.917Z,83.80
2022-07-29T04:38:18.089Z,83.58
2022-07-29T04:40:47.176Z,84.48
2022-07-29T04:43:22.621Z,86.06
2022-07-29T04:45:52.280Z,86.31
2022-07-29T04:48:23.008Z,85.71
2022-07-29T04:50:58.222Z,85.39
2022-07-29T04:53:27.363Z,85.00
2022-07-29T04:55:55.657Z,84.94
2022-07-29T04:58:25.037Z,85.07
2022-07-29T05:00:53.359Z,84.92
2022-07-29T05:03:21.609Z,84.11
2022-07-29T05:05:49.983Z,83.99
2022-07-29T05:08:19.577Z,83.32
2022-07-29T05:10:47.946Z,82.96
2022-07-29T05:13:17.093Z,82.80
2022-07-29T05:15:45.646Z,82.75
2022-07-29T05:18:14.056Z,83.20
2022-07-29T05:20:42.519Z,83.11
2022-07-29T05:23:13.650Z,82.39
2022-07-29T05:25:44.933Z,82.19
2022-07-29T05:28:13.994Z,82.16
2022-07-29T05:30:42.299Z,81.51
2022-07-29T05:33:35.514Z,81.19
2022-07-29T05:36:00.733Z,81.47
2022-07-29T05:38:29.849Z,81.74
2022-07-29T05:41:01.232Z,82.89
2022-07-29T05:43:30.199Z,83.63
2022-07-29T05:45:58.947Z,83.31
2022-07-29T05:48:27.399Z,83.65
2022-07-29T05:50:56.036Z,82.66
2022-07-29T05:53:24.700Z,82.50
2022-07-29T05:55:53.354Z,82.01
2022-07-29T05:58:23.268Z,81.72
2022-07-29T06:00:51.600Z,81.52
2022-07-29T06:03:19.803Z,81.03
2022-07-29T06:05:48.103Z,81.14
2022-07-29T06:08:16.361Z,81.37
2022-07-29T06:10:45.161Z,80.82
2022-07-29T06:13:14.057Z,79.72
2022-07-29T06:15:44.300Z,78.44
2022-07-29T06:18:14.940Z,77.08
2022-07-29T06:20:43.347Z,75.98
2022-07-29T06:23:11.631Z,75.60
2022-07-29T06:25:41.870Z,74.86
2022-07-29T06:28:10.388Z,74.46
2022-07-29T06:30:38.824Z,73.63
2022-07-29T06:33:08.573Z,74.30
2022-07-29T06:35:41.916Z,73.09
2022-07-29T06:38:30.107Z,72.73
2022-07-29T06:41:04.697Z,72.16
2022-07-29T06:43:50.488Z,73.09
2022-07-29T06:46:21.821Z,72.44
2022-07-29T06:48:53.260Z,72.49
2022-07-29T06:51:23.314Z,72.87
2022-07-29T06:54:00.216Z,71.34
2022-07-29T06:56:38.906Z,70.34
2022-07-29T06:59:08.720Z,70.49
2022-07-29T07:01:38.336Z,70.23
2022-07-29T07:04:09.609Z,70.55
2022-07-29T07:06:38.749Z,71.17
2022-07-29T07:09:07.283Z,72.10
2022-07-29T07:11:35.772Z,71.96
2022-07-29T07:14:08.851Z,70.16
2022-07-29T07:16:37.164Z,71.01
2022-07-29T07:19:07.100Z,69.80
2022-07-29T07:21:36.444Z,69.07
2022-07-29T07:24:06.056Z,68.33
2022-07-29T07:26:34.292Z,67.20
2022-07-29T07:29:02.624Z,67.32
2022-07-29T07:31:31.089Z,67.15
2022-07-29T07:34:00.037Z,66.83
2022-07-29T07:36:29.766Z,66.20
2022-07-29T07:38:58.094Z,64.71
2022-07-29T07:41:26.866Z,65.39
2022-07-29T07:44:01.113Z,64.27
2022-07-29T07:46:29.556Z,63.87
2022-07-29T07:48:57.852Z,63.52
2022-07-29T07:51:26.171Z,61.89
2022-07-29T07:53:55.927Z,62.47
2022-07-29T07:56:25.978Z,61.24
2022-07-29T07:58:54.166Z,61.69
2022-07-29T08:01:23.984Z,61.41
2022-07-29T08:03:57.122Z,60.84
2022-07-29T08:06:26.059Z,60.59
2022-07-29T08:08:56.392Z,59.75
2022-07-29T08:11:25.289Z,60.91
2022-07-29T08:13:53.603Z,59.57
2022-07-29T08:16:21.959Z,59.51
2022-07-29T08:18:50.338Z,58.55
2022-07-29T08:21:18.831Z,58.14
2022-07-29T08:23:56.157Z,58.07
2022-07-29T08:26:28.508Z,57.87
2022-07-29T08:28:56.768Z,56.71
2022-07-29T08:31:25.078Z,56.63
2022-07-29T08:33:53.393Z,56.77
2022-07-29T08:36:22.913Z,56.91
2022-07-29T08:38:51.940Z,56.77
2022-07-29T08:41:20.846Z,56.87
2022-07-29T08:43:51.962Z,57.13
2022-07-29T08:46:21.464Z,57.71
2022-07-29T08:48:50.500Z,59.46
2022-07-29T08:51:21.367Z,59.05
2022-07-29T08:53:52.161Z,58.89
2022-07-29T08:56:21.644Z,59.22
2022-07-29T08:58:52.721Z,59.04
2022-07-29T09:01:35.233Z,58.78
2022-07-29T09:04:08.468Z,58.63
2022-07-29T09:06:42.655Z,58.41
2022-07-29T09:09:11.296Z,58.00
2022-07-29T09:11:39.783Z,58.68
2022-07-29T09:14:09.885Z,57.46
2022-07-29T09:16:58.140Z,58.04
2022-07-29T09:19:29.982Z,57.91
2022-07-29T09:21:59.244Z,58.12
2022-07-29T09:24:38.707Z,57.95
2022-07-29T09:27:13.301Z,57.61
2022-07-29T09:29:43.177Z,58.64
2022-07-29T09:32:12.553Z,58.20
2022-07-29T09:34:40.872Z,57.74
2022-07-29T09:37:09.306Z,57.19
2022-07-29T09:39:46.411Z,57.24
2022-07-29T09:42:16.711Z,57.40
2022-07-29T09:44:50.134Z,58.23
2022-07-29T09:47:22.762Z,57.11
2022-07-29T09:49:58.862Z,56.18
2022-07-29T09:52:28.025Z,55.91
2022-07-29T09:55:07.679Z,55.63
2022-07-29T09:57:36.032Z,56.24
2022-07-29T10:00:09.122Z,56.61
2022-07-29T10:02:47.040Z,55.29
2022-07-29T10:05:22.919Z,54.88
2022-07-29T10:07:57.414Z,54.94
2022-07-29T10:10:29.780Z,53.40
2022-07-29T10:13:04.619Z,54.51
2022-07-29T10:15:41.725Z,55.93
2022-07-29T10:18:11.057Z,56.01
2022-07-29T10:20:40.148Z,56.99
2022-07-29T10:23:08.433Z,56.46
2022-07-29T10:25:36.709Z,56.18
2022-07-29T10:28:05.556Z,57.27
2022-07-29T10:30:33.995Z,57.02
2022-07-29T10:33:30.922Z,56.85
2022-07-29T10:36:18.533Z,56.76
2022-07-29T10:39:03.628Z,56.31
2022-07-29T10:41:49.711Z,56.23
2022-07-29T10:47:09.608Z,55.59
2022-07-29T10:49:41.081Z,55.94
2022-07-29T10:52:11.565Z,56.35
2022-07-29T10:54:47.302Z,56.01
2022-07-29T10:57:18.557Z,56.39
2022-07-29T10:59:52.924Z,56.45
2022-07-29T11:02:56.479Z,56.29
2022-07-29T11:05:32.055Z,56.27
2022-07-29T11:08:27.653Z,56.45
2022-07-29T11:11:43.793Z,55.55
2022-07-29T11:14:15.822Z,56.38
2022-07-29T11:17:06.891Z,55.89
2022-07-29T11:19:40.231Z,54.53
2022-07-29T11:22:16.571Z,54.19
2022-07-29T11:24:50.164Z,53.48
2022-07-29T11:30:12.946Z,54.32
2022-07-29T11:32:48.613Z,54.10
2022-07-29T11:35:36.794Z,54.54
2022-07-29T11:38:31.926Z,54.34
2022-07-29T11:41:27.208Z,54.52
2022-07-29T11:43:58.418Z,54.44
2022-07-29T11:46:49.997Z,52.84
2022-07-29T11:49:32.628Z,53.17
2022-07-29T11:52:03.943Z,52.24
2022-07-29T11:54:38.841Z,52.80
2022-07-29T11:57:36.248Z,51.62
2022-07-29T12:00:12.585Z,51.60
2022-07-29T12:03:35.093Z,52.18
2022-07-29T12:06:14.356Z,51.65
2022-07-29T12:07:03.415Z,54.56
2022-07-29T12:08:45.206Z,51.48
2022-07-29T12:11:23.575Z,52.53
2022-07-29T12:13:53.129Z,53.16
2022-07-29T12:16:25.867Z,53.61
2022-07-29T12:18:59.782Z,54.96
2022-07-29T12:21:29.331Z,55.41
2022-07-29T12:24:05.882Z,54.74
2022-07-29T12:26:40.550Z,55.20
2022-07-29T12:29:15.403Z,55.51
2022-07-29T12:31:45.553Z,56.27
2022-07-29T12:34:17.849Z,56.56
2022-07-29T12:36:46.446Z,56.63
2022-07-29T12:39:14.959Z,56.85
2022-07-29T12:41:45.252Z,56.39
2022-07-29T12:44:13.969Z,56.67
2022-07-29T12:46:42.417Z,56.69
2022-07-29T12:49:10.797Z,56.55
2022-07-29T12:51:42.150Z,56.85
2022-07-29T12:54:14.265Z,57.88
2022-07-29T12:56:45.988Z,57.87
2022-07-29T12:59:16.938Z,58.06
2022-07-29T13:01:45.997Z,58.86
2022-07-29T13:04:27.437Z,58.33
2022-07-29T13:07:04.522Z,58.50
2022-07-29T13:09:40.854Z,57.77
2022-07-29T13:12:13.914Z,58.06
2022-07-29T13:14:44.441Z,58.19
2022-07-29T13:17:15.096Z,58.83
2022-07-29T13:19:45.400Z,58.10
2022-07-29T13:22:17.020Z,57.61
2022-07-29T13:24:52.986Z,56.10
2022-07-29T13:27:25.364Z,56.60
2022-07-29T13:29:57.393Z,55.83
2022-07-29T13:32:28.225Z,55.40
2022-07-29T13:34:57.513Z,55.80
2022-07-29T13:37:26.924Z,56.10
2022-07-29T13:39:56.897Z,56.65
2022-07-29T13:42:27.286Z,56.26
2022-07-29T13:44:55.589Z,55.73
2022-07-29T13:47:32.176Z,56.45
2022-07-29T13:50:01.820Z,57.07
2022-07-29T13:52:56.048Z,57.86
2022-07-29T13:55:24.390Z,57.37
2022-07-29T13:57:54.162Z,57.06
2022-07-29T14:00:22.461Z,57.91
2022-07-29T14:02:50.723Z,58.01
2022-07-29T14:05:20.446Z,57.80
2022-07-29T14:07:48.725Z,56.05
2022-07-29T14:10:20.057Z,54.96
2022-07-29T14:12:48.513Z,53.68
2022-07-29T14:15:18.301Z,54.36
2022-07-29T14:17:46.549Z,54.24
2022-07-29T14:20:16.538Z,54.11
2022-07-29T14:22:45.840Z,53.18
2022-07-29T14:25:15.527Z,52.63
2022-07-29T14:27:44.716Z,51.57
2022-07-29T14:30:14.388Z,51.13
2022-07-29T14:32:44.179Z,49.18
2022-07-29T14:35:12.687Z,49.23
2022-07-29T14:37:41.233Z,49.37
2022-07-29T14:40:11.650Z,49.59
2022-07-29T14:42:40.404Z,49.21
2022-07-29T14:45:11.419Z,47.81
2022-07-29T14:47:40.477Z,47.78
2022-07-29T14:50:11.424Z,47.22
2022-07-29T14:52:39.997Z,47.37
2022-07-29T14:55:19.580Z,48.72
2022-07-29T14:57:49.400Z,49.05
2022-07-29T15:00:18.394Z,49.21
2022-07-29T15:03:01.364Z,49.57
2022-07-29T15:05:32.190Z,50.23
2022-07-29T15:08:01.068Z,51.10
2022-07-29T15:10:29.768Z,51.45
2022-07-29T15:12:58.828Z,50.79
2022-07-29T15:15:27.379Z,51.47
2022-07-29T15:17:55.678Z,51.40
2022-07-29T15:20:26.180Z,52.06
2022-07-29T15:22:56.855Z,52.24
2022-07-29T15:25:26.409Z,52.32
2022-07-29T15:28:01.162Z,58.34
2022-07-29T15:30:33.995Z,62.25
2022-07-29T15:33:04.095Z,63.40
2022-07-29T15:35:32.586Z,63.62
2022-07-29T15:38:02.343Z,63.89
2022-07-29T15:40:30.693Z,63.86
2022-07-29T15:43:01.759Z,64.19
2022-07-29T15:45:32.071Z,65.11
2022-07-29T15:48:01.376Z,65.07
2022-07-29T15:50:29.592Z,65.03
2022-07-29T15:52:58.241Z,64.19
2022-07-29T15:55:28.099Z,64.01
2022-07-29T15:58:00.461Z,64.48
2022-07-29T16:00:29.314Z,64.77
2022-07-29T16:06:03.767Z,66.92
2022-07-29T16:08:32.259Z,68.40
2022-07-29T16:11:01.828Z,67.99
2022-07-29T16:13:30.216Z,68.56
2022-07-29T16:16:01.847Z,68.02
2022-07-29T16:18:31.686Z,67.98
2022-07-29T16:21:00.029Z,67.41
2022-07-29T16:23:28.402Z,66.97
2022-07-29T16:26:00.245Z,65.82
2022-07-29T16:28:30.957Z,65.75
2022-07-29T16:30:59.268Z,65.76
2022-07-29T16:33:28.322Z,65.80
2022-07-29T16:36:18.486Z,65.81
2022-07-29T16:38:47.616Z,66.16
2022-07-29T16:41:16.421Z,65.26
2022-07-29T16:43:46.158Z,65.29
2022-07-29T16:46:17.775Z,65.44
2022-07-29T16:48:47.614Z,64.57
2022-07-29T16:51:16.853Z,64.69
2022-07-29T16:53:45.210Z,64.05
2022-07-29T16:56:13.501Z,63.61
2022-07-29T16:58:44.069Z,64.11
2022-07-29T17:01:14.124Z,64.47
2022-07-29T17:04:02.706Z,64.25
2022-07-29T17:06:32.655Z,64.79
2022-07-29T17:09:01.361Z,64.42
2022-07-29T17:11:51.941Z,64.12
2022-07-29T17:14:17.875Z,64.29
2022-07-29T17:17:00.642Z,64.92
2022-07-29T17:19:31.492Z,64.80
2022-07-29T17:22:08.974Z,64.60
2022-07-29T17:24:40.222Z,64.84
2022-07-29T17:27:09.741Z,65.55
2022-07-29T17:29:38.744Z,65.15
2022-07-29T17:32:10.416Z,64.95
2022-07-29T17:34:43.912Z,65.30
2022-07-29T17:37:13.372Z,65.35
2022-07-29T17:39:43.158Z,65.57
2022-07-29T17:42:13.424Z,65.43
2022-07-29T17:44:41.820Z,65.22
2022-07-29T17:47:15.985Z,65.93
2022-07-29T17:49:45.630Z,66.72
2022-07-29T17:52:14.002Z,66.44
2022-07-29T17:54:42.234Z,66.23
2022-07-29T17:57:10.509Z,66.31
2022-07-29T17:59:45.238Z,72.11
2022-07-29T18:02:14.940Z,73.96
2022-07-29T18:04:43.244Z,74.01
2022-07-29T18:07:11.576Z,73.99
2022-07-29T18:09:39.766Z,73.67
2022-07-29T18:12:09.509Z,74.69
2022-07-29T18:14:37.681Z,76.18
2022-07-29T18:17:05.884Z,75.44
2022-07-29T18:19:35.515Z,74.69
2022-07-29T18:22:05.146Z,100.00
2022-07-29T18:24:34.916Z,75.76
2022-07-29T18:27:03.123Z,76.52
2022-07-29T18:29:31.365Z,76.76
2022-07-29T18:31:59.967Z,78.68
2022-07-29T18:34:28.283Z,79.25
2022-07-29T18:36:58.191Z,79.10
2022-07-29T18:39:26.576Z,79.60
2022-07-29T18:41:54.814Z,79.66
2022-07-29T18:44:23.369Z,78.65
2022-07-29T18:46:52.560Z,78.38
2022-07-29T18:49:20.940Z,79.37
2022-07-29T18:51:49.884Z,81.23
2022-07-29T18:54:20.668Z,83.09
2022-07-29T18:56:48.892Z,84.94
2022-07-29T18:59:20.116Z,84.65
2022-07-29T19:01:48.864Z,84.44
2022-07-29T19:04:17.499Z,84.75
2022-07-29T19:06:46.146Z,84.02
2022-07-29T19:09:14.466Z,82.97
2022-07-29T19:11:44.155Z,83.55
2022-07-29T19:14:12.859Z,82.93
2022-07-29T19:16:41.129Z,82.66
2022-07-29T19:19:09.423Z,83.55
2022-07-29T19:21:37.752Z,83.23
2022-07-29T19:24:11.026Z,82.41
2022-07-29T19:26:46.735Z,81.67
2022-07-29T19:29:15.320Z,81.11
2022-07-29T19:31:44.345Z,80.60
2022-07-29T19:34:13.039Z,80.04
2022-07-29T19:36:41.853Z,79.10
2022-07-29T19:39:10.408Z,79.31
2022-07-29T19:41:39.034Z,78.97
2022-07-29T19:44:08.649Z,78.40
2022-07-29T19:46:37.022Z,77.27
2022-07-29T19:49:06.509Z,76.85
2022-07-29T19:51:34.867Z,76.14
2022-07-29T19:54:03.297Z,75.50
2022-07-29T19:56:31.961Z,75.91
2022-07-29T19:59:00.744Z,75.37
2022-07-29T20:01:55.971Z,75.28
2022-07-29T20:04:24.221Z,75.44
2022-07-29T20:06:56.002Z,75.14
2022-07-29T20:09:24.466Z,74.49
2022-07-29T20:11:52.686Z,74.28
2022-07-29T20:14:20.971Z,74.23
2022-07-29T20:16:49.254Z,73.88
2022-07-29T20:19:18.994Z,73.17
2022-07-29T20:21:47.226Z,73.33
2022-07-29T20:24:15.498Z,73.13
2022-07-29T20:26:43.697Z,72.91
2022-07-29T20:29:11.934Z,72.64
2022-07-29T20:31:46.352Z,72.17
2022-07-29T20:34:26.298Z,72.43
2022-07-29T20:36:54.562Z,71.52
2022-07-29T20:39:23.337Z,71.71
2022-07-29T20:41:51.924Z,71.33
2022-07-29T20:44:20.305Z,72.92
2022-07-29T20:46:48.907Z,72.96
2022-07-29T20:49:17.258Z,73.77
2022-07-29T20:51:46.973Z,73.29
2022-07-29T20:54:15.247Z,74.05
2022-07-29T20:56:43.478Z,73.79
2022-07-29T20:59:11.806Z,74.10
2022-07-29T21:01:40.142Z,73.75
2022-07-29T21:04:08.462Z,73.61
2022-07-29T21:06:36.830Z,74.93
2022-07-29T21:09:06.456Z,75.59
2022-07-29T21:11:43.329Z,74.99
2022-07-29T21:14:20.430Z,75.01
2022-07-29T21:16:50.200Z,74.80
2022-07-29T21:19:18.423Z,75.13
2022-07-29T21:21:46.691Z,74.97
2022-07-29T21:24:16.293Z,75.22
2022-07-29T21:26:54.469Z,75.67
2022-07-29T21:29:32.256Z,74.62
2022-07-29T21:32:00.471Z,75.67
2022-07-29T21:34:28.793Z,75.39
2022-07-29T21:36:57.025Z,76.00
2022-07-29T21:39:27.963Z,76.06
2022-07-29T21:41:56.306Z,77.25
2022-07-29T21:44:24.569Z,77.40
2022-07-29T21:46:52.816Z,77.75
2022-07-29T21:49:21.111Z,78.03
2022-07-29T21:51:49.351Z,77.70
2022-07-29T21:54:19.089Z,78.49
2022-07-29T21:56:51.178Z,78.00
2022-07-29T21:59:20.036Z,77.70
2022-07-29T22:01:48.557Z,78.03
2022-07-29T22:04:17.259Z,78.23
2022-07-29T22:06:45.496Z,78.74
2022-07-29T22:09:13.821Z,79.15
2022-07-29T22:11:42.470Z,79.09
2022-07-29T22:14:12.334Z,79.14
2022-07-29T22:16:40.661Z,79.12
2022-07-29T22:19:09.042Z,79.31
2022-07-29T22:21:37.242Z,79.40
2022-07-29T22:24:06.093Z,79.43
2022-07-29T22:26:34.466Z,80.24
2022-07-29T22:29:02.698Z,80.24
2022-07-29T22:31:32.363Z,80.64
2022-07-29T22:34:00.760Z,80.34
2022-07-29T22:36:29.071Z,80.12
2022-07-29T22:38:57.321Z,80.21
2022-07-29T22:41:25.522Z,80.83
2022-07-29T22:43:53.811Z,80.57
2022-07-29T22:46:22.296Z,80.81
2022-07-29T22:48:51.940Z,80.89
2022-07-29T22:51:20.147Z,81.76
2022-07-29T22:53:48.413Z,82.11
2022-07-29T22:56:16.887Z,81.79
2022-07-29T22:58:45.132Z,82.56
2022-07-29T23:01:13.881Z,82.52
2022-07-29T23:03:42.220Z,82.34
2022-07-29T23:06:21.521Z,82.94
2022-07-29T23:08:49.784Z,83.08
2022-07-29T23:11:18.128Z,83.41
2022-07-29T23:13:46.416Z,83.87
2022-07-29T23:16:14.732Z,83.95
2022-07-29T23:18:55.738Z,84.46
2022-07-29T23:21:26.160Z,84.64
2022-07-29T23:23:54.410Z,83.96
2022-07-29T23:26:23.096Z,83.08
2022-07-29T23:28:51.768Z,83.38
2022-07-29T23:31:20.031Z,84.02
2022-07-29T23:33:48.286Z,85.46
2022-07-29T23:36:16.821Z,85.76
2022-07-29T23:38:46.718Z,85.57
2022-07-29T23:41:15.390Z,85.34
2022-07-29T23:43:43.679Z,85.34
2022-07-29T23:46:11.903Z,84.73
2022-07-29T23:48:40.249Z,85.60
2022-07-29T23:51:08.890Z,86.53
2022-07-29T23:53:38.656Z,87.71
2022-07-29T23:56:24.104Z,87.96
2022-07-29T23:58:52.804Z,88.46
